Time;durP1;ratioP1;P1;durP2;ratioP2;P2;SDS_P1;SDS_P2;PMS_P1;PMS_P2;Temp;Humidity;BMP_temperature;BMP_pressure;BME280_temperature;BME280_humidity;BME280_pressure;Samples;Min_cycle;Max_cycle;Signal;HPM_P1;HPM_P2
2022/05/26 00:01:26;;;;;;;10.45;2.25;;;16.20;61.90;;;;;;5064763;28;20662;-75
2022/05/26 00:03:53;;;;;;;15.05;3.40;;;16.20;62.00;;;;;;5067507;28;20045;-74
2022/05/26 00:06:22;;;;;;;10.68;3.17;;;16.20;62.00;;;;;;5060541;28;20063;-74
2022/05/26 00:08:48;;;;;;;13.35;2.58;;;16.20;62.10;;;;;;5063529;28;20028;-74
2022/05/26 00:11:21;;;;;;;12.18;2.60;;;16.20;62.10;;;;;;5068065;28;20025;-74
2022/05/26 00:13:47;;;;;;;;;;;16.20;62.20;;;;;;5066602;28;20028;-75
2022/05/26 00:16:13;;;;;;;14.20;3.70;;;16.20;62.00;;;;;;5061766;28;19919;-75
2022/05/26 00:18:39;;;;;;;7.72;2.40;;;16.20;61.90;;;;;;5058407;28;20044;-74
2022/05/26 00:21:06;;;;;;;10.10;2.80;;;16.10;61.80;;;;;;5066640;28;20032;-74
2022/05/26 00:23:32;;;;;;;11.65;2.65;;;16.10;61.90;;;;;;5063408;28;20108;-74
2022/05/26 00:25:58;;;;;;;10.65;2.22;;;16.10;62.00;;;;;;5068256;28;20163;-74
2022/05/26 00:28:24;;;;;;;8.48;2.10;;;16.10;62.20;;;;;;5067227;28;20052;-75
2022/05/26 00:30:50;;;;;;;9.18;2.03;;;16.10;62.20;;;;;;5066954;28;20033;-74
2022/05/26 00:33:17;;;;;;;9.93;1.88;;;16.00;62.10;;;;;;5065347;28;20081;-74
2022/05/26 00:35:43;;;;;;;11.90;3.42;;;16.00;62.20;;;;;;5056554;28;20041;-74
2022/05/26 00:38:11;;;;;;;8.95;2.55;;;16.00;62.30;;;;;;5064131;28;20029;-74
2022/05/26 00:40:38;;;;;;;9.88;2.30;;;16.00;62.30;;;;;;5066342;28;20036;-73
2022/05/26 00:43:05;;;;;;;10.38;2.60;;;16.00;62.30;;;;;;5065386;28;20036;-74
2022/05/26 00:45:43;;;;;;;7.57;2.72;;;16.00;62.30;;;;;;5066843;28;20060;-74
2022/05/26 00:48:14;;;;;;;9.75;2.70;;;16.00;62.50;;;;;;5066621;28;20439;-75
2022/05/26 00:50:47;;;;;;;9.18;2.03;;;16.00;62.50;;;;;;5066090;28;20035;-74
2022/05/26 00:53:18;;;;;;;9.10;2.05;;;16.00;62.60;;;;;;5052644;28;20492;-75
2022/05/26 00:56:00;;;;;;;8.10;2.10;;;15.90;62.40;;;;;;5079492;28;20512;-74
2022/05/26 00:58:31;;;;;;;11.85;3.10;;;15.90;62.50;;;;;;5049142;28;20037;-74
2022/05/26 01:01:00;;;;;;;11.48;2.53;;;15.90;62.50;;;;;;5064131;28;20034;-74
2022/05/26 01:03:39;;;;;;;11.48;2.25;;;15.90;62.50;;;;;;5066719;28;20029;-74
2022/05/26 01:06:13;;;;;;;11.80;2.63;;;15.90;62.70;;;;;;5065912;28;20033;-75
2022/05/26 01:08:58;;;;;;;11.30;3.15;;;15.90;62.70;;;;;;5063784;28;20039;-74
2022/05/26 01:11:27;;;;;;;11.23;2.65;;;15.80;62.50;;;;;;5064466;28;20051;-75
2022/05/26 01:14:01;;;;;;;9.25;3.00;;;15.80;62.50;;;;;;5065394;28;20597;-76
2022/05/26 01:17:02;;;;;;;9.82;2.58;;;15.80;62.60;;;;;;5065253;28;20194;-75
2022/05/26 01:19:39;;;;;;;11.43;3.35;;;15.80;62.70;;;;;;5043182;28;20051;-75
2022/05/26 01:22:23;;;;;;;6.53;1.83;;;15.80;62.60;;;;;;5065436;28;20403;-74
2022/05/26 01:25:08;;;;;;;9.70;2.22;;;15.80;62.80;;;;;;5065524;28;20454;-75
2022/05/26 01:27:37;;;;;;;13.40;2.92;;;15.80;62.70;;;;;;5065451;28;20585;-74
2022/05/26 01:30:16;;;;;;;11.25;2.38;;;15.80;62.80;;;;;;5047510;28;20475;-74
2022/05/26 01:33:04;;;;;;;8.40;2.13;;;15.80;62.90;;;;;;5064836;28;20036;-74
2022/05/26 01:35:41;;;;;;;8.95;2.45;;;15.80;62.90;;;;;;5066538;28;20048;-74
2022/05/26 01:38:21;;;;;;;6.05;1.98;;;15.80;62.90;;;;;;5061916;28;20029;-74
2022/05/26 01:40:51;;;;;;;11.10;3.30;;;15.80;62.90;;;;;;5065425;28;20052;-73
2022/05/26 01:43:32;;;;;;;7.65;2.88;;;15.80;62.90;;;;;;5059927;28;20484;-75
2022/05/26 01:46:02;;;;;;;21.17;3.53;;;15.70;62.90;;;;;;5061614;28;20461;-74
2022/05/26 01:48:40;;;;;;;10.48;3.95;;;15.70;62.80;;;;;;5062023;28;20039;-74
2022/05/26 01:51:36;;;;;;;8.80;2.65;;;15.70;62.90;;;;;;5058660;28;20029;-74
2022/05/26 01:54:14;;;;;;;10.43;2.65;;;15.70;62.90;;;;;;5044605;28;20067;-74
2022/05/26 01:56:50;;;;;;;10.98;2.40;;;15.70;62.90;;;;;;5067329;28;20032;-74
2022/05/26 01:59:38;;;;;;;9.95;2.42;;;15.70;63.00;;;;;;5066311;28;20094;-74
2022/05/26 02:02:11;;;;;;;9.23;2.17;;;15.70;62.90;;;;;;5055983;28;20129;-74
2022/05/26 02:04:47;;;;;;;6.88;1.77;;;15.60;62.80;;;;;;5060649;28;20044;-74
2022/05/26 02:07:26;;;;;;;11.07;3.00;;;15.60;62.90;;;;;;5065734;28;20032;-74
2022/05/26 02:09:55;;;;;;;10.85;2.90;;;15.60;62.90;;;;;;5066995;28;20123;-74
2022/05/26 02:12:25;;;;;;;11.40;2.85;;;15.60;62.90;;;;;;5066708;28;20033;-74
2022/05/26 02:15:03;;;;;;;7.53;2.22;;;15.60;63.00;;;;;;5066013;28;20517;-73
2022/05/26 02:17:32;;;;;;;10.80;2.13;;;15.60;63.00;;;;;;5065987;28;20028;-74
2022/05/26 02:20:07;;;;;;;11.30;3.35;;;15.60;63.10;;;;;;5065678;28;20041;-76
2022/05/26 02:22:39;;;;;;;10.55;2.42;;;15.60;63.20;;;;;;5049288;28;20387;-73
2022/05/26 02:25:07;;;;;;;11.60;2.88;;;15.60;63.20;;;;;;5064564;28;20043;-74
2022/05/26 02:27:35;;;;;;;7.65;2.20;;;15.50;63.10;;;;;;5058572;28;20044;-74
2022/05/26 02:30:02;;;;;;;9.00;2.88;;;15.60;63.30;;;;;;5064985;28;20058;-74
2022/05/26 02:32:35;;;;;;;10.55;3.17;;;15.50;63.20;;;;;;5062055;28;20036;-74
2022/05/26 02:35:07;;;;;;;8.02;2.15;;;15.50;63.30;;;;;;5079929;28;20035;-74
2022/05/26 02:37:35;;;;;;;7.25;2.03;;;15.50;63.30;;;;;;5061996;28;20037;-74
2022/05/26 02:40:01;;;;;;;14.82;2.10;;;15.50;63.30;;;;;;5066772;28;20044;-74
2022/05/26 02:42:28;;;;;;;8.88;2.70;;;15.50;63.40;;;;;;5061979;28;20566;-75
2022/05/26 02:44:55;;;;;;;11.80;3.20;;;15.50;63.40;;;;;;5065045;28;20024;-74
2022/05/26 02:47:45;;;;;;;12.95;4.72;;;15.40;63.30;;;;;;5048448;28;20035;-76
2022/05/26 02:50:37;;;;;;;11.95;4.25;;;15.40;63.50;;;;;;5059624;28;20039;-77
2022/05/26 02:53:18;;;;;;;8.32;2.30;;;15.40;63.50;;;;;;5045698;28;20025;-74
2022/05/26 02:56:19;;;;;;;18.33;3.83;;;15.40;63.50;;;;;;5062147;28;20353;-74
2022/05/26 02:58:50;;;;;;;10.75;3.05;;;15.40;63.60;;;;;;5061322;28;20631;-74
2022/05/26 03:01:25;;;;;;;7.43;2.10;;;15.40;63.50;;;;;;5063918;28;20039;-73
2022/05/26 03:04:07;;;;;;;8.55;2.30;;;15.40;63.70;;;;;;5068580;28;20064;-73
2022/05/26 03:06:46;;;;;;;8.23;2.83;;;15.40;63.70;;;;;;5067865;28;20684;-77
2022/05/26 03:09:13;;;;;;;10.65;2.85;;;15.40;63.70;;;;;;5068851;28;20033;-75
2022/05/26 03:11:49;;;;;;;11.90;3.08;;;15.40;63.70;;;;;;5053820;28;20041;-75
2022/05/26 03:14:17;;;;;;;10.98;3.50;;;15.40;63.90;;;;;;5064407;28;20116;-76
2022/05/26 03:16:44;;;;;;;13.38;3.05;;;15.40;63.80;;;;;;5058748;28;20522;-76
2022/05/26 03:19:10;;;;;;;9.20;3.28;;;15.40;63.90;;;;;;5070085;28;20377;-76
2022/05/26 03:21:37;;;;;;;12.15;2.80;;;15.40;63.90;;;;;;5058096;28;20036;-76
2022/05/26 03:24:04;;;;;;;11.88;2.47;;;15.40;63.90;;;;;;5060115;28;20117;-76
2022/05/26 03:26:30;;;;;;;14.52;3.38;;;15.40;64.00;;;;;;5064348;28;20025;-75
2022/05/26 03:28:56;;;;;;;11.65;3.88;;;15.40;64.00;;;;;;5067381;28;20090;-76
2022/05/26 03:31:22;;;;;;;9.27;3.30;;;15.40;64.10;;;;;;5069425;28;20115;-76
2022/05/26 03:42:02;;;;;;;12.35;2.88;;;15.40;64.10;;;;;;5069313;28;20592;-76
2022/05/26 03:44:30;;;;;;;10.57;3.63;;;15.40;64.10;;;;;;5064489;28;20075;-76
2022/05/26 03:46:57;;;;;;;11.75;2.58;;;15.40;64.10;;;;;;5060830;28;20101;-76
2022/05/26 03:49:22;;;;;;;7.18;2.25;;;15.50;64.40;;;;;;5066897;28;20040;-76
2022/05/26 03:51:48;;;;;;;11.25;2.65;;;15.50;64.40;;;;;;5059974;28;20037;-76
2022/05/26 03:54:14;;;;;;;11.88;2.90;;;15.50;64.40;;;;;;5069666;28;20565;-77
2022/05/26 03:56:40;;;;;;;9.95;3.05;;;15.50;64.40;;;;;;5066565;28;20033;-76
2022/05/26 03:59:06;;;;;;;8.15;2.80;;;15.50;64.40;;;;;;5061929;28;20067;-75
2022/05/26 04:01:32;;;;;;;10.95;3.80;;;15.50;64.40;;;;;;5071771;28;20035;-76
2022/05/26 04:03:58;;;;;;;7.95;2.40;;;15.50;64.40;;;;;;5070279;28;20372;-76
2022/05/26 04:06:25;;;;;;;7.80;2.20;;;15.50;64.50;;;;;;5070396;28;20036;-75
2022/05/26 04:08:51;;;;;;;10.18;2.38;;;15.50;64.50;;;;;;5078807;28;20025;-76
2022/05/26 04:11:17;;;;;;;11.13;2.72;;;15.60;64.70;;;;;;5068439;28;20036;-76
2022/05/26 04:13:43;;;;;;;8.52;1.90;;;15.60;64.70;;;;;;5064178;28;20438;-76
2022/05/26 04:16:09;;;;;;;8.55;2.58;;;15.60;64.70;;;;;;5067852;28;20040;-76
2022/05/26 04:18:35;;;;;;;8.05;2.53;;;15.60;64.70;;;;;;5067520;28;20455;-76
2022/05/26 04:21:10;;;;;;;10.48;2.67;;;15.60;64.70;;;;;;5067280;28;20063;-76
2022/05/26 04:23:36;;;;;;;11.15;2.45;;;15.60;64.80;;;;;;5065297;28;20032;-75
2022/05/26 04:26:04;;;;;;;13.45;3.20;;;15.70;64.90;;;;;;5063400;28;20036;-76
2022/05/26 04:28:30;;;;;;;11.10;3.08;;;15.70;64.90;;;;;;5066962;28;20041;-76
2022/05/26 04:30:56;;;;;;;9.77;3.13;;;15.70;64.90;;;;;;5068464;28;20063;-76
2022/05/26 04:33:22;;;;;;;10.23;2.05;;;15.70;64.90;;;;;;5060831;28;20049;-75
2022/05/26 04:35:48;;;;;;;11.15;3.35;;;15.80;65.10;;;;;;5068005;28;20033;-76
2022/05/26 04:38:14;;;;;;;14.80;3.75;;;15.80;65.10;;;;;;5080229;28;20380;-76
2022/05/26 04:40:40;;;;;;;11.23;2.83;;;15.90;65.20;;;;;;5067211;28;20451;-75
2022/05/26 04:43:07;;;;;;;8.35;2.15;;;15.90;65.20;;;;;;5066446;28;20025;-75
2022/05/26 04:45:33;;;;;;;6.90;2.17;;;15.90;65.20;;;;;;5046019;28;20037;-75
2022/05/26 04:47:59;;;;;;;5.47;1.55;;;15.90;65.10;;;;;;5064244;28;20039;-75
2022/05/26 04:50:25;;;;;;;10.10;2.13;;;15.90;65.10;;;;;;5069928;28;20032;-76
2022/05/26 04:52:51;;;;;;;8.93;1.55;;;16.00;65.20;;;;;;5049075;28;20505;-76
2022/05/26 04:55:17;;;;;;;5.18;2.22;;;16.00;65.20;;;;;;5073111;28;20074;-76
2022/05/26 04:57:43;;;;;;;8.20;2.42;;;16.00;65.20;;;;;;5067362;28;20103;-76
2022/05/26 05:00:13;;;;;;;9.10;2.17;;;16.00;65.20;;;;;;5073632;28;20439;-76
2022/05/26 05:02:40;;;;;;;10.15;1.98;;;16.00;65.20;;;;;;5083570;28;20024;-76
2022/05/26 05:05:07;;;;;;;7.15;1.50;;;16.10;65.30;;;;;;5071335;28;20391;-77
2022/05/26 05:07:33;;;;;;;8.85;1.90;;;16.10;65.30;;;;;;5068229;28;20105;-77
2022/05/26 05:09:59;;;;;;;9.18;2.22;;;16.10;65.20;;;;;;5081304;28;20032;-75
2022/05/26 05:12:26;;;;;;;16.13;2.20;;;16.10;65.70;;;;;;5067506;28;20025;-75
2022/05/26 05:14:55;;;;;;;7.68;1.52;;;16.20;65.30;;;;;;5074528;28;20107;-77
2022/05/26 05:17:23;;;;;;;6.75;2.63;;;16.20;65.30;;;;;;5045457;28;20795;-75
2022/05/26 05:19:50;;;;;;;10.38;2.15;;;16.20;65.30;;;;;;5063893;28;20037;-75
2022/05/26 05:22:22;;;;;;;6.03;1.90;;;16.30;65.40;;;;;;5061879;28;20028;-74
2022/05/26 05:24:54;;;;;;;7.30;2.33;;;16.30;65.40;;;;;;5060925;28;20090;-76
2022/05/26 05:27:34;;;;;;;8.43;2.28;;;16.30;65.30;;;;;;5062790;28;20024;-73
2022/05/26 05:30:06;;;;;;;6.43;1.50;;;16.40;65.40;;;;;;5053868;28;20024;-74
2022/05/26 05:32:41;;;;;;;6.55;1.80;;;16.40;65.30;;;;;;5064366;28;20033;-75
2022/05/26 05:35:15;;;;;;;10.95;1.98;;;16.50;65.40;;;;;;5066054;28;20024;-74
2022/05/26 05:37:42;;;;;;;6.30;2.00;;;16.50;65.30;;;;;;5080621;28;20479;-73
2022/05/26 05:40:08;;;;;;;5.15;1.45;;;16.50;65.20;;;;;;5064398;28;20115;-74
2022/05/26 05:42:34;;;;;;;4.68;1.42;;;16.60;65.40;;;;;;5071808;28;20167;-73
2022/05/26 05:45:00;;;;;;;4.35;1.50;;;16.60;65.30;;;;;;5070900;28;20040;-74
2022/05/26 05:47:26;;;;;;;5.28;1.30;;;16.70;65.30;;;;;;5070892;28;20439;-76
2022/05/26 05:49:52;;;;;;;13.70;2.58;;;16.70;65.20;;;;;;5059227;28;20074;-79
2022/05/26 05:52:21;;;;;;;6.88;1.98;;;16.80;65.30;;;;;;5070402;28;20020;-79
2022/05/26 05:54:46;;;;;;;9.95;1.85;;;16.90;65.30;;;;;;5065827;28;20033;-80
2022/05/26 05:57:12;;;;;;;11.15;2.85;;;16.90;65.20;;;;;;5063433;28;20035;-78
2022/05/26 05:59:38;;;;;;;11.27;2.50;;;17.00;65.10;;;;;;5057966;28;20961;-88
2022/05/26 06:02:05;;;;;;;7.70;1.60;;;17.10;65.10;;;;;;5073253;28;20235;-77
2022/05/26 06:04:31;;;;;;;10.20;2.58;;;17.10;64.90;;;;;;5055568;28;20563;-77
2022/05/26 06:06:59;;;;;;;10.45;2.60;;;17.20;64.80;;;;;;5051179;28;20032;-79
2022/05/26 06:09:25;;;;;;;11.88;2.47;;;17.20;64.60;;;;;;5076368;28;20084;-78
2022/05/26 06:11:51;;;;;;;11.00;2.08;;;17.20;64.50;;;;;;5062116;28;20062;-79
2022/05/26 06:14:17;;;;;;;9.73;1.83;;;17.30;64.60;;;;;;5062373;28;20025;-79
2022/05/26 06:16:44;;;;;;;12.98;3.58;;;17.30;64.40;;;;;;5064284;28;20028;-80
2022/05/26 06:19:11;;;;;;;8.05;1.70;;;17.40;64.40;;;;;;5073542;28;20047;-78
2022/05/26 06:21:38;;;;;;;13.18;3.10;;;17.40;64.30;;;;;;5066919;28;20021;-79
2022/05/26 06:24:05;;;;;;;10.13;2.45;;;17.40;64.10;;;;;;5061961;28;20029;-78
2022/05/26 06:26:32;;;;;;;4.70;1.42;;;17.50;64.20;;;;;;5064486;28;20212;-76
2022/05/26 06:37:13;;;;;;;10.93;2.15;;;17.50;63.90;;;;;;5052369;28;20494;-78
2022/05/26 06:37:14;;;;;;;7.95;2.30;;;17.50;63.90;;;;;;5066084;28;20841;-75
2022/05/26 06:39:41;;;;;;;5.95;1.65;;;17.50;63.50;;;;;;5057704;28;20044;-76
2022/05/26 06:42:09;;;;;;;8.57;1.52;;;17.50;63.50;;;;;;5066182;28;20071;-76
2022/05/26 06:44:39;;;;;;;14.20;2.28;;;17.60;63.60;;;;;;5067001;28;20032;-76
2022/05/26 06:47:11;;;;;;;8.32;2.00;;;17.50;64.00;;;;;;5077254;28;20028;-76
2022/05/26 06:49:39;;;;;;;11.43;1.60;;;17.50;63.50;;;;;;5071564;28;20040;-77
2022/05/26 06:52:06;;;;;;;9.40;1.80;;;17.50;63.50;;;;;;5078847;28;20030;-76
2022/05/26 06:54:34;;;;;;;6.57;1.50;;;17.50;63.70;;;;;;5074167;28;20159;-76
2022/05/26 06:57:00;;;;;;;15.20;2.40;;;17.40;63.60;;;;;;5059848;28;20091;-76
2022/05/26 06:59:27;;;;;;;8.07;1.77;;;17.40;63.70;;;;;;5075714;28;20522;-76
2022/05/26 07:01:53;;;;;;;10.48;2.22;;;17.30;63.60;;;;;;5072164;28;20344;-77
2022/05/26 07:04:19;;;;;;;9.68;1.88;;;17.30;63.60;;;;;;5049151;28;20119;-75
2022/05/26 07:06:50;;;;;;;12.15;2.50;;;17.30;63.70;;;;;;5059141;28;20020;-76
2022/05/26 07:09:17;;;;;;;6.53;2.38;;;17.30;64.40;;;;;;5063702;28;20033;-75
2022/05/26 07:11:44;;;;;;;11.55;2.88;;;17.30;63.90;;;;;;5058763;28;20028;-76
2022/05/26 07:14:11;;;;;;;9.45;2.78;;;17.20;63.80;;;;;;5074635;28;20036;-76
2022/05/26 07:16:37;;;;;;;7.05;2.35;;;17.20;63.80;;;;;;5058242;28;20033;-76
2022/05/26 07:19:02;;;;;;;10.55;2.95;;;17.20;63.80;;;;;;5078523;28;20047;-75
2022/05/26 07:21:28;;;;;;;10.98;2.88;;;17.20;63.80;;;;;;5066501;28;20052;-75
2022/05/26 07:23:54;;;;;;;9.35;2.53;;;17.20;63.80;;;;;;5061682;28;20033;-77
2022/05/26 07:26:21;;;;;;;9.07;1.83;;;17.20;63.80;;;;;;5065953;28;20412;-76
2022/05/26 07:28:48;;;;;;;10.23;2.97;;;17.30;64.00;;;;;;5068300;28;20401;-75
2022/05/26 07:31:14;;;;;;;16.10;2.63;;;17.30;64.00;;;;;;5066889;28;20079;-75
2022/05/26 07:33:43;;;;;;;13.20;2.97;;;17.30;63.90;;;;;;5065503;28;20119;-75
2022/05/26 07:41:16;;;;;;;11.50;3.22;;;17.30;63.90;;;;;;5052507;28;20367;-75
2022/05/26 07:41:41;;;;;;;9.30;2.47;;;17.30;63.80;;;;;;5065349;28;20032;-76
2022/05/26 07:44:07;;;;;;;10.45;2.65;;;17.40;63.90;;;;;;5066565;28;20028;-73
2022/05/26 07:46:33;;;;;;;13.68;3.10;;;17.50;63.90;;;;;;5065822;28;20029;-76
2022/05/26 07:48:59;;;;;;;8.75;2.17;;;17.50;63.90;;;;;;5062169;28;20039;-76
2022/05/26 07:51:25;;;;;;;13.02;3.17;;;17.50;63.80;;;;;;5067052;28;20118;-75
2022/05/26 07:53:51;;;;;;;8.98;2.10;;;17.60;63.80;;;;;;5064050;28;20040;-76
2022/05/26 07:56:18;;;;;;;10.43;2.80;;;17.60;63.60;;;;;;5069993;28;20081;-76
2022/05/26 07:58:44;;;;;;;13.52;3.70;;;17.70;63.60;;;;;;5069206;28;20040;-76
2022/05/26 08:01:11;;;;;;;9.48;2.30;;;17.80;63.60;;;;;;5061546;28;20032;-75
2022/05/26 08:03:38;;;;;;;9.77;2.65;;;17.80;63.40;;;;;;5065072;28;20116;-75
2022/05/26 08:06:05;;;;;;;12.85;2.88;;;17.80;63.30;;;;;;5065223;28;20024;-76
2022/05/26 08:08:32;;;;;;;9.20;2.88;;;17.90;63.30;;;;;;5063679;28;20021;-76
2022/05/26 08:10:58;;;;;;;11.90;2.80;;;18.00;63.30;;;;;;5056869;28;20058;-76
2022/05/26 08:13:24;;;;;;;12.40;4.05;;;18.10;63.30;;;;;;5063222;28;20527;-75
2022/05/26 08:15:50;;;;;;;14.43;3.45;;;18.20;63.30;;;;;;5064953;28;20253;-76
2022/05/26 08:18:16;;;;;;;11.18;2.78;;;18.30;63.30;;;;;;5064391;28;20028;-76
2022/05/26 08:20:42;;;;;;;11.02;2.58;;;18.30;63.10;;;;;;5070631;28;20042;-75
2022/05/26 08:23:08;;;;;;;12.65;3.22;;;18.40;63.20;;;;;;5065515;28;20526;-76
2022/05/26 08:25:34;;;;;;;15.30;4.22;;;18.50;63.70;;;;;;5060382;28;20071;-76
2022/05/26 08:28:00;;;;;;;14.32;3.25;;;18.60;63.00;;;;;;5065837;28;20039;-76
2022/05/26 08:30:27;;;;;;;12.30;2.80;;;18.80;63.20;;;;;;5067614;28;20518;-77
2022/05/26 08:32:55;;;;;;;13.80;3.28;;;18.90;63.10;;;;;;5063568;28;20247;-77
2022/05/26 08:35:22;;;;;;;11.52;2.85;;;19.10;63.70;;;;;;5070143;28;20032;-76
2022/05/26 08:37:48;;;;;;;11.02;2.55;;;19.20;63.10;;;;;;5065788;28;20059;-77
2022/05/26 08:40:37;;;;;;;10.65;2.53;;;19.40;63.10;;;;;;5085565;28;20045;-77
2022/05/26 08:43:05;;;;;;;16.70;3.08;;;19.60;63.10;;;;;;5068349;28;20051;-76
2022/05/26 08:45:39;;;;;;;12.70;3.35;;;19.80;63.00;;;;;;5069153;28;20024;-76
2022/05/26 08:48:05;;;;;;;16.27;5.07;;;20.00;62.80;;;;;;5068386;28;20035;-76
2022/05/26 08:50:35;;;;;;;11.52;2.45;;;20.20;62.70;;;;;;5064520;28;20028;-76
2022/05/26 08:53:10;;;;;;;11.32;3.42;;;20.30;62.50;;;;;;5064111;28;20061;-77
2022/05/26 08:55:49;;;;;;;14.43;3.83;;;20.40;62.40;;;;;;5073885;28;20503;-76
2022/05/26 08:58:18;;;;;;;13.55;2.58;;;20.60;62.50;;;;;;5069535;28;20074;-76
2022/05/26 09:00:45;;;;;;;12.55;3.35;;;20.60;62.20;;;;;;5076826;28;20036;-73
2022/05/26 09:03:33;;;;;;;11.35;3.20;;;20.70;62.20;;;;;;5070078;28;20170;-73
2022/05/26 09:06:10;;;;;;;8.38;2.10;;;20.80;62.00;;;;;;5055037;28;20036;-74
2022/05/26 09:14:32;;;;;;;15.27;3.92;;;21.10;61.90;;;;;;5058206;28;20033;-76
2022/05/26 09:17:00;;;;;;;13.88;2.90;;;21.20;61.80;;;;;;5062660;28;20065;-76
2022/05/26 09:19:32;;;;;;;12.27;2.95;;;21.20;62.20;;;;;;5064343;28;20613;-76
2022/05/26 09:21:58;;;;;;;14.77;3.42;;;21.20;61.60;;;;;;5064089;28;20063;-76
2022/05/26 09:24:33;;;;;;;9.68;2.10;;;21.40;61.80;;;;;;5060956;28;20036;-76
2022/05/26 09:27:05;;;;;;;14.40;3.08;;;21.40;61.50;;;;;;5057624;28;20207;-76
2022/05/26 09:29:34;;;;;;;12.23;2.55;;;21.50;61.50;;;;;;5071107;28;20039;-76
2022/05/26 09:32:02;;;;;;;11.70;2.75;;;21.60;61.50;;;;;;5063248;28;20025;-75
2022/05/26 09:34:32;;;;;;;15.18;3.17;;;21.70;61.30;;;;;;5063586;28;20032;-76
2022/05/26 09:37:00;;;;;;;10.15;3.42;;;21.90;61.20;;;;;;5046152;28;20028;-75
2022/05/26 09:39:34;;;;;;;11.40;2.72;;;22.00;61.00;;;;;;5067202;28;20086;-76
2022/05/26 09:42:02;;;;;;;7.45;2.60;;;22.10;60.90;;;;;;5062585;28;20675;-75
2022/05/26 09:44:46;;;;;;;12.55;3.63;;;22.20;61.30;;;;;;5063270;28;20032;-75
2022/05/26 09:47:23;;;;;;;14.90;2.70;;;22.30;60.70;;;;;;5067847;28;20067;-76
2022/05/26 09:49:52;;;;;;;13.70;3.10;;;22.30;60.50;;;;;;5061728;28;20495;-75
2022/05/26 09:52:23;;;;;;;10.25;2.70;;;22.30;60.40;;;;;;5064249;28;20036;-75
2022/05/26 09:55:08;;;;;;;12.32;2.67;;;22.40;60.30;;;;;;5063241;28;20317;-75
2022/05/26 09:57:34;;;;;;;11.75;2.63;;;22.40;60.00;;;;;;5075246;28;20546;-76
2022/05/26 09:59:59;;;;;;;9.48;2.47;;;22.50;60.20;;;;;;5062745;28;20101;-76
2022/05/26 10:02:35;;;;;;;10.77;2.55;;;22.50;59.90;;;;;;5063977;28;20099;-75
2022/05/26 10:05:23;;;;;;;13.70;2.80;;;22.60;59.80;;;;;;5066200;28;20446;-75
2022/05/26 10:08:07;;;;;;;11.05;3.17;;;22.70;59.80;;;;;;5059752;28;20135;-76
2022/05/26 10:10:40;;;;;;;8.95;2.08;;;22.70;59.70;;;;;;5066031;28;20552;-76
2022/05/26 10:13:27;;;;;;;13.68;2.88;;;22.80;59.70;;;;;;5064247;28;20760;-75
2022/05/26 10:16:31;;;;;;;10.00;2.65;;;22.70;59.20;;;;;;5052165;28;20015;-75
2022/05/26 10:19:06;;;;;;;15.10;3.72;;;22.80;59.20;;;;;;5062281;28;20044;-76
2022/05/26 10:21:59;;;;;;;16.35;3.80;;;22.80;59.20;;;;;;5075152;28;20186;-75
2022/05/26 10:24:39;;;;;;;12.02;3.78;;;22.90;59.30;;;;;;5058214;28;20032;-75
2022/05/26 10:27:28;;;;;;;12.32;3.35;;;22.90;59.00;;;;;;5061071;28;20035;-77
2022/05/26 10:30:14;;;;;;;11.93;2.50;;;23.00;58.90;;;;;;5054158;28;20028;-76
2022/05/26 10:32:52;;;;;;;9.70;2.92;;;23.00;58.70;;;;;;5061049;28;20078;-75
2022/05/26 10:35:29;;;;;;;9.27;2.65;;;22.90;58.50;;;;;;5051500;28;20332;-76
2022/05/26 10:38:15;;;;;;;8.40;3.28;;;22.80;58.40;;;;;;5064576;28;20467;-76
2022/05/26 10:40:56;;;;;;;11.60;2.47;;;22.80;58.30;;;;;;5068180;28;20170;-76
2022/05/26 10:43:29;;;;;;;8.30;2.47;;;22.70;58.30;;;;;;5062127;28;20028;-76
2022/05/26 10:45:55;;;;;;;;;;;22.60;58.20;;;;;;5063453;28;20097;-75
2022/05/26 10:48:39;;;;;;;13.27;3.20;;;22.60;58.40;;;;;;5065036;28;19918;-76
2022/05/26 10:51:27;;;;;;;10.93;2.85;;;22.60;58.40;;;;;;5060136;28;20502;-75
2022/05/26 10:53:58;;;;;;;10.88;3.03;;;22.50;58.20;;;;;;5062821;28;20028;-75
2022/05/26 10:56:43;;;;;;;9.52;2.00;;;22.60;58.50;;;;;;5056128;28;20039;-76
2022/05/26 10:59:30;;;;;;;9.88;2.38;;;22.80;58.60;;;;;;5062308;28;20100;-76
2022/05/26 11:02:09;;;;;;;7.80;3.08;;;23.00;58.60;;;;;;5074656;28;20481;-76
2022/05/26 11:04:47;;;;;;;9.45;2.08;;;23.20;58.70;;;;;;5050321;28;20098;-75
2022/05/26 11:07:22;;;;;;;10.00;2.67;;;23.40;58.50;;;;;;5045240;28;20188;-75
2022/05/26 11:10:05;;;;;;;5.60;1.40;;;23.60;58.50;;;;;;5063963;28;20036;-75
2022/05/26 11:12:43;;;;;;;5.30;1.65;;;23.80;58.40;;;;;;5075430;28;20776;-75
2022/05/26 11:18:26;;;;;;;7.65;2.50;;;24.10;58.30;;;;;;5058516;28;20028;-76
2022/05/26 11:20:54;;;;;;;5.10;1.45;;;24.30;58.20;;;;;;5060963;28;20044;-76
2022/05/26 11:23:23;;;;;;;4.20;1.70;;;24.50;58.20;;;;;;5069560;28;20171;-73
2022/05/26 11:25:48;;;;;;;3.47;1.70;;;24.70;58.00;;;;;;5064305;28;20509;-73
2022/05/26 11:28:30;;;;;;;5.60;1.55;;;24.90;57.80;;;;;;5067783;28;20033;-75
2022/05/26 11:36:47;;;;;;;5.18;1.45;;;25.60;56.70;;;;;;5067874;28;20047;-76
2022/05/26 11:39:28;;;;;;;5.30;1.70;;;25.80;56.40;;;;;;5060075;28;20044;-77
2022/05/26 11:42:01;;;;;;;4.28;1.30;;;26.00;55.90;;;;;;5065026;28;20064;-76
2022/05/26 11:44:37;;;;;;;4.60;1.80;;;26.20;55.70;;;;;;5056138;28;20114;-75
2022/05/26 11:47:42;;;;;;;3.95;1.27;;;26.30;55.20;;;;;;5068939;28;20082;-76
2022/05/26 11:50:49;;;;;;;6.30;1.33;;;26.40;54.90;;;;;;5062367;28;20036;-75
2022/05/26 11:53:30;;;;;;;4.88;1.92;;;26.40;54.70;;;;;;5006542;28;20108;-75
2022/05/26 11:56:16;;;;;;;4.68;1.42;;;26.50;54.60;;;;;;5018675;28;20037;-76
2022/05/26 11:58:44;;;;;;;5.60;1.13;;;26.60;54.60;;;;;;5013504;28;20080;-76
2022/05/26 12:01:19;;;;;;;7.13;1.38;;;26.60;54.50;;;;;;5017764;28;20037;-76
2022/05/26 12:03:53;;;;;;;3.45;1.45;;;26.70;54.30;;;;;;5010229;28;20547;-76
2022/05/26 12:06:52;;;;;;;4.10;1.45;;;26.90;54.00;;;;;;5019658;28;20045;-76
2022/05/26 12:09:39;;;;;;;5.05;1.98;;;27.10;53.60;;;;;;5004886;28;20041;-76
2022/05/26 12:12:33;;;;;;;2.67;0.90;;;27.30;53.40;;;;;;5017371;28;20184;-76
2022/05/26 12:15:07;;;;;;;2.97;1.15;;;27.50;52.90;;;;;;5017173;28;20038;-76
2022/05/26 12:17:44;;;;;;;3.30;1.30;;;27.80;52.80;;;;;;5009376;28;20556;-78
2022/05/26 12:20:10;;;;;;;5.85;1.73;;;27.90;52.50;;;;;;5031943;28;20029;-77
2022/05/26 12:22:37;;;;;;;4.15;1.73;;;28.10;52.20;;;;;;5024053;28;20095;-78
2022/05/26 12:25:23;;;;;;;3.95;1.10;;;28.30;51.90;;;;;;5054765;28;20044;-76
2022/05/26 12:27:49;;;;;;;3.60;1.67;;;28.40;51.40;;;;;;5065458;28;20037;-76
2022/05/26 12:30:42;;;;;;;2.65;1.02;;;28.50;51.50;;;;;;5070045;28;20040;-76
2022/05/26 12:33:20;;;;;;;4.82;1.42;;;28.60;51.10;;;;;;5067707;28;20131;-77
2022/05/26 12:35:55;;;;;;;4.78;1.02;;;28.60;51.10;;;;;;5066790;28;20024;-76
2022/05/26 12:38:51;;;;;;;6.10;1.95;;;28.50;51.00;;;;;;5065242;28;20033;-78
2022/05/26 12:41:44;;;;;;;4.75;1.30;;;28.50;50.80;;;;;;5064908;28;20048;-78
2022/05/26 12:44:22;;;;;;;3.50;1.30;;;28.40;50.70;;;;;;5048918;28;20403;-78
2022/05/26 12:47:07;;;;;;;5.78;1.23;;;28.20;50.90;;;;;;5071533;28;20039;-76
2022/05/26 12:49:57;;;;;;;8.18;2.20;;;28.10;51.10;;;;;;5064724;28;20423;-77
2022/05/26 12:53:07;;;;;;;4.70;1.50;;;27.90;51.20;;;;;;5068175;28;20032;-76
2022/05/26 12:55:53;;;;;;;4.00;1.38;;;27.90;51.40;;;;;;5024547;28;20137;-78
2022/05/26 12:58:30;;;;;;;4.07;1.10;;;27.70;51.40;;;;;;5025340;28;20046;-77
2022/05/26 13:00:56;;;;;;;3.90;1.00;;;27.60;51.50;;;;;;5021083;28;20048;-77
2022/05/26 13:03:38;;;;;;;6.10;1.95;;;27.60;51.60;;;;;;5017264;28;20029;-77
2022/05/26 13:06:13;;;;;;;4.17;1.10;;;27.60;51.40;;;;;;5022827;28;20064;-79
2022/05/26 13:08:44;;;;;;;1.80;0.90;;;27.70;51.40;;;;;;5032179;28;20153;-76
2022/05/26 13:11:18;;;;;;;5.72;2.30;;;27.90;51.20;;;;;;5024026;28;20029;-77
2022/05/26 13:13:51;;;;;;;2.58;1.15;;;28.30;51.60;;;;;;5006806;28;20079;-77
2022/05/26 13:16:21;;;;;;;5.25;1.40;;;28.70;50.50;;;;;;5023373;28;20037;-76
2022/05/26 13:18:47;;;;;;;3.85;1.30;;;29.10;50.00;;;;;;5018040;28;20040;-77
2022/05/26 13:21:36;;;;;;;4.10;1.70;;;29.40;49.50;;;;;;5024358;28;20049;-77
2022/05/26 13:24:03;;;;;;;3.47;1.10;;;29.80;48.90;;;;;;5000347;28;20175;-77
2022/05/26 13:26:30;;;;;;;4.20;1.60;;;30.00;48.70;;;;;;5022968;28;20045;-76
2022/05/26 13:29:00;;;;;;;4.65;1.27;;;30.20;48.50;;;;;;5012035;28;20029;-77
2022/05/26 13:34:14;;;;;;;4.75;1.45;;;30.50;47.90;;;;;;5019760;28;20148;-73
2022/05/26 13:36:44;;;;;;;4.00;1.58;;;30.60;47.80;;;;;;5031735;28;20025;-76
2022/05/26 13:39:20;;;;;;;5.60;1.73;;;30.70;47.50;;;;;;5031589;28;20021;-76
2022/05/26 13:41:51;;;;;;;4.43;1.40;;;30.80;47.60;;;;;;5024216;28;20033;-79
2022/05/26 13:44:32;;;;;;;4.30;1.65;;;30.80;48.10;;;;;;5030504;28;20029;-79